createdAt,value
2023-03-05T00:01:09.137Z,21.00
2023-03-05T00:03:36.770Z,21.33
2023-03-05T00:06:04.601Z,20.23
2023-03-05T00:08:32.572Z,20.77
2023-03-05T00:11:01.478Z,20.52
2023-03-05T00:13:29.047Z,21.40
2023-03-05T00:15:56.627Z,20.73
2023-03-05T00:18:24.211Z,21.80
2023-03-05T00:20:51.756Z,20.90
2023-03-05T00:23:19.393Z,21.63
2023-03-05T00:25:47.016Z,20.55
2023-03-05T00:28:14.956Z,21.40
2023-03-05T00:30:42.551Z,21.45
2023-03-05T00:33:10.738Z,22.67
2023-03-05T00:35:41.910Z,22.10
2023-03-05T00:38:09.730Z,22.95
2023-03-05T00:40:41.556Z,21.55
2023-03-05T00:43:09.201Z,22.63
2023-03-05T00:45:37.021Z,21.65
2023-03-05T00:48:05.014Z,22.48
2023-03-05T00:50:32.648Z,22.35
2023-03-05T00:53:00.217Z,22.77
2023-03-05T00:55:27.770Z,22.42
2023-03-05T00:57:55.313Z,22.50
2023-03-05T01:00:22.941Z,22.65
2023-03-05T01:02:50.491Z,21.95
2023-03-05T01:05:18.091Z,21.95
2023-03-05T01:07:45.682Z,22.27
2023-03-05T01:10:13.328Z,21.95
2023-03-05T01:12:41.170Z,21.88
2023-03-05T01:15:08.989Z,21.88
2023-03-05T01:17:36.577Z,22.55
2023-03-05T01:20:05.244Z,22.80
2023-03-05T01:22:32.846Z,21.73
2023-03-05T01:25:00.862Z,21.35
2023-03-05T01:27:28.403Z,22.88
2023-03-05T01:29:55.954Z,21.40
2023-03-05T01:32:23.513Z,21.70
2023-03-05T01:34:51.082Z,20.83
2023-03-05T01:37:18.711Z,22.13
2023-03-05T01:39:46.384Z,20.10
2023-03-05T01:42:13.948Z,22.30
2023-03-05T01:45:00.156Z,23.02
2023-03-05T01:47:27.846Z,21.50
2023-03-05T01:49:55.795Z,21.63
2023-03-05T01:52:24.574Z,21.33
2023-03-05T01:54:57.096Z,22.40
2023-03-05T01:57:29.691Z,23.20
2023-03-05T01:59:59.769Z,23.45
2023-03-05T02:02:27.348Z,23.83
2023-03-05T02:05:05.813Z,22.48
2023-03-05T02:07:37.155Z,22.00
2023-03-05T02:10:21.298Z,21.83
2023-03-05T02:12:49.892Z,22.52
2023-03-05T02:15:17.865Z,22.35
2023-03-05T02:17:46.308Z,22.38
2023-03-05T02:20:24.286Z,24.10
2023-03-05T02:22:52.053Z,23.20
2023-03-05T02:25:22.815Z,23.60
2023-03-05T02:27:57.330Z,24.05
2023-03-05T02:30:25.279Z,22.83
2023-03-05T02:32:52.860Z,22.55
2023-03-05T02:35:21.983Z,23.48
2023-03-05T02:37:49.609Z,22.77
2023-03-05T02:40:17.517Z,23.73
2023-03-05T02:42:46.580Z,22.67
2023-03-05T02:45:15.831Z,23.17
2023-03-05T02:47:44.412Z,23.00
2023-03-05T02:50:12.846Z,22.75
2023-03-05T02:52:40.790Z,22.30
2023-03-05T02:55:13.082Z,23.33
2023-03-05T02:57:41.539Z,22.80
2023-03-05T03:00:09.627Z,21.70
2023-03-05T03:02:37.294Z,21.58
2023-03-05T03:05:05.864Z,22.55
2023-03-05T03:07:35.860Z,23.23
2023-03-05T03:10:04.534Z,23.13
2023-03-05T03:12:32.124Z,21.73
2023-03-05T03:15:01.508Z,23.17
2023-03-05T03:17:29.154Z,22.40
2023-03-05T03:19:56.674Z,21.65
2023-03-05T03:22:24.236Z,22.00
2023-03-05T03:24:51.816Z,22.42
2023-03-05T03:27:19.378Z,21.15
2023-03-05T03:29:47.006Z,20.60
2023-03-05T03:32:14.635Z,21.30
2023-03-05T03:34:42.248Z,21.15
2023-03-05T03:37:09.816Z,22.30
2023-03-05T03:39:37.361Z,21.83
2023-03-05T03:42:05.093Z,20.40
2023-03-05T03:44:32.640Z,21.40
2023-03-05T03:47:00.312Z,20.58
2023-03-05T03:49:27.908Z,20.67
2023-03-05T03:51:58.033Z,21.30
2023-03-05T03:54:25.645Z,20.52
2023-03-05T03:56:53.358Z,20.48
2023-03-05T03:59:21.006Z,19.83
2023-03-05T04:01:48.774Z,21.45
2023-03-05T04:04:16.428Z,22.05
2023-03-05T04:06:44.844Z,21.27
2023-03-05T04:09:12.401Z,20.10
2023-03-05T04:11:39.939Z,21.38
2023-03-05T04:14:07.517Z,20.52
2023-03-05T04:16:35.094Z,20.95
2023-03-05T04:19:02.732Z,22.17
2023-03-05T04:21:31.303Z,21.23
2023-03-05T04:23:58.991Z,21.88
2023-03-05T04:26:26.566Z,20.65
2023-03-05T04:28:54.171Z,21.25
2023-03-05T04:31:21.802Z,22.95
2023-03-05T04:33:49.352Z,21.30
2023-03-05T04:36:16.932Z,22.13
2023-03-05T04:38:44.636Z,22.13
2023-03-05T04:41:12.332Z,23.38
2023-03-05T04:43:39.910Z,21.75
2023-03-05T04:46:07.530Z,23.23
2023-03-05T04:48:35.174Z,22.73
2023-03-05T04:51:02.757Z,21.73
2023-03-05T04:53:30.301Z,21.88
2023-03-05T04:55:57.984Z,23.67
2023-03-05T04:58:25.530Z,23.17
2023-03-05T05:00:53.147Z,22.15
2023-03-05T05:03:20.687Z,23.30
2023-03-05T05:05:54.384Z,22.05
2023-03-05T05:08:22.168Z,21.92
2023-03-05T05:10:56.896Z,22.40
2023-03-05T05:13:24.725Z,20.95
2023-03-05T05:15:52.445Z,20.88
2023-03-05T05:18:20.092Z,22.08
2023-03-05T05:20:48.074Z,21.05
2023-03-05T05:23:15.886Z,22.27
2023-03-05T05:25:43.536Z,21.45
2023-03-05T05:28:11.624Z,20.45
2023-03-05T05:30:39.414Z,22.13
2023-03-05T05:33:06.996Z,20.58
2023-03-05T05:35:34.612Z,21.45
2023-03-05T05:38:02.184Z,21.23
2023-03-05T05:40:29.745Z,21.77
2023-03-05T05:42:57.272Z,22.05
2023-03-05T05:45:25.015Z,21.23
2023-03-05T05:47:52.683Z,20.90
2023-03-05T05:50:20.798Z,22.73
2023-03-05T05:52:48.362Z,22.00
2023-03-05T05:55:15.945Z,22.40
2023-03-05T05:57:43.541Z,21.98
2023-03-05T06:00:12.807Z,21.83
2023-03-05T06:02:41.215Z,20.52
2023-03-05T06:05:09.729Z,20.88
2023-03-05T06:07:37.379Z,21.48
2023-03-05T06:10:05.162Z,21.58
2023-03-05T06:12:32.813Z,21.52
2023-03-05T06:15:00.382Z,22.55
2023-03-05T06:17:31.063Z,20.85
2023-03-05T06:19:59.617Z,20.03
2023-03-05T06:22:27.266Z,20.23
2023-03-05T06:24:54.843Z,19.25
2023-03-05T06:27:22.528Z,19.38
2023-03-05T06:29:53.116Z,19.40
2023-03-05T06:32:21.084Z,18.77
2023-03-05T06:34:48.833Z,18.70
2023-03-05T06:37:16.794Z,17.17
2023-03-05T06:39:44.566Z,17.23
2023-03-05T06:42:12.213Z,17.23
2023-03-05T06:44:40.503Z,17.73
2023-03-05T06:47:11.925Z,17.15
2023-03-05T06:49:39.641Z,17.25
2023-03-05T06:52:09.993Z,17.63
2023-03-05T06:54:37.651Z,18.45
2023-03-05T06:57:05.324Z,18.63
2023-03-05T06:59:32.884Z,18.08
2023-03-05T07:02:00.665Z,17.27
2023-03-05T07:04:28.300Z,17.67
2023-03-05T07:06:55.938Z,19.05
2023-03-05T07:09:23.535Z,18.35
2023-03-05T07:11:52.160Z,17.83
2023-03-05T07:14:19.770Z,17.70
2023-03-05T07:16:47.359Z,17.40
2023-03-05T07:19:14.921Z,18.05
2023-03-05T07:21:42.786Z,17.98
2023-03-05T07:24:10.390Z,18.67
2023-03-05T07:26:38.037Z,17.75
2023-03-05T07:29:05.730Z,17.98
2023-03-05T07:31:33.353Z,19.27
2023-03-05T07:34:02.008Z,17.92
2023-03-05T07:36:29.867Z,18.90
2023-03-05T07:38:57.586Z,19.63
2023-03-05T07:41:25.196Z,18.17
2023-03-05T07:43:53.499Z,18.27
2023-03-05T07:46:22.746Z,17.15
2023-03-05T07:48:51.425Z,18.63
2023-03-05T07:51:20.011Z,17.65
2023-03-05T07:53:48.853Z,17.92
2023-03-05T07:56:26.046Z,18.83
2023-03-05T07:58:53.882Z,17.77
2023-03-05T08:01:21.600Z,18.88
2023-03-05T08:03:49.218Z,18.73
2023-03-05T08:06:16.957Z,18.95
2023-03-05T08:08:44.499Z,18.55
2023-03-05T08:11:13.640Z,18.92
2023-03-05T08:13:41.205Z,19.20
2023-03-05T08:16:13.705Z,19.83
2023-03-05T08:18:41.416Z,19.27
2023-03-05T08:21:16.149Z,19.15
2023-03-05T08:23:44.059Z,18.92
2023-03-05T08:26:12.621Z,17.58
2023-03-05T08:28:40.204Z,18.63
2023-03-05T08:31:15.063Z,18.35
2023-03-05T08:33:43.064Z,18.85
2023-03-05T08:36:11.103Z,18.98
2023-03-05T08:38:38.641Z,18.90
2023-03-05T08:41:06.208Z,18.48
2023-03-05T08:43:33.754Z,19.60
2023-03-05T08:46:01.897Z,18.90
2023-03-05T08:48:29.898Z,19.15
2023-03-05T08:50:57.480Z,21.33
2023-03-05T08:53:25.036Z,19.27
2023-03-05T08:55:56.180Z,18.25
2023-03-05T08:58:23.974Z,18.80
2023-03-05T09:00:51.841Z,19.75
2023-03-05T09:03:19.956Z,19.27
2023-03-05T09:05:47.518Z,19.58
2023-03-05T09:08:15.211Z,19.10
2023-03-05T09:10:43.432Z,19.60
2023-03-05T09:13:11.116Z,19.38
2023-03-05T09:15:39.475Z,18.80
2023-03-05T09:18:08.951Z,19.85
2023-03-05T09:20:37.179Z,18.77
2023-03-05T09:23:05.680Z,19.48
2023-03-05T09:25:33.272Z,18.63
2023-03-05T09:28:00.899Z,19.90
2023-03-05T09:30:28.469Z,18.80
2023-03-05T09:32:56.034Z,20.13
2023-03-05T09:35:23.664Z,19.05
2023-03-05T09:37:52.496Z,19.35
2023-03-05T09:40:20.661Z,17.75
2023-03-05T09:42:48.263Z,19.17
2023-03-05T09:45:19.287Z,19.60
2023-03-05T09:48:07.035Z,19.45
2023-03-05T09:50:34.602Z,19.65
2023-03-05T09:53:08.637Z,18.50
2023-03-05T09:55:40.445Z,18.92
2023-03-05T10:00:40.052Z,18.40
2023-03-05T10:03:13.536Z,17.90
2023-03-05T10:05:46.924Z,17.25
2023-03-05T10:08:15.197Z,19.92
2023-03-05T10:10:45.106Z,19.55
2023-03-05T10:13:17.237Z,18.42
2023-03-05T10:15:51.960Z,19.70
2023-03-05T10:18:31.459Z,20.73
2023-03-05T10:21:01.773Z,18.77
2023-03-05T10:23:31.412Z,18.83
2023-03-05T10:26:02.961Z,19.60
2023-03-05T10:28:36.590Z,19.58
2023-03-05T10:31:04.194Z,19.95
2023-03-05T10:33:46.770Z,18.10
2023-03-05T10:36:29.502Z,19.60
2023-03-05T10:39:17.712Z,18.55
2023-03-05T10:42:10.668Z,19.25
2023-03-05T10:44:40.922Z,19.77
2023-03-05T10:47:23.338Z,18.63
2023-03-05T10:49:52.410Z,18.00
2023-03-05T10:52:37.633Z,18.90
2023-03-05T10:55:15.604Z,19.50
2023-03-05T10:57:43.166Z,18.85
2023-03-05T11:00:23.841Z,19.85
2023-03-05T11:02:59.937Z,18.50
2023-03-05T11:05:39.682Z,18.92
2023-03-05T11:08:27.614Z,17.65
2023-03-05T11:11:06.213Z,17.17
2023-03-05T11:13:34.184Z,17.90
2023-03-05T11:16:02.724Z,18.20
2023-03-05T11:18:37.591Z,17.58
2023-03-05T11:21:09.351Z,17.80
2023-03-05T11:26:13.579Z,17.08
2023-03-05T11:28:41.099Z,18.60
2023-03-05T11:31:09.390Z,18.60
2023-03-05T11:33:37.551Z,17.75
2023-03-05T11:36:13.195Z,18.10
2023-03-05T11:38:51.130Z,18.08
2023-03-05T11:41:21.186Z,17.35
2023-03-05T11:43:48.962Z,19.35
2023-03-05T11:46:18.748Z,18.67
2023-03-05T11:48:47.143Z,17.83
2023-03-05T11:51:26.841Z,19.40
2023-03-05T11:54:00.051Z,19.05
2023-03-05T11:56:35.437Z,16.65
2023-03-05T11:59:13.198Z,16.50
2023-03-05T12:01:48.790Z,18.40
2023-03-05T12:04:16.608Z,16.92
2023-03-05T12:06:58.265Z,17.65
2023-03-05T12:09:28.798Z,15.85
2023-03-05T12:12:02.694Z,15.77
2023-03-05T12:14:35.889Z,15.45
2023-03-05T12:17:16.864Z,14.00
2023-03-05T12:19:47.281Z,14.43
2023-03-05T12:22:24.905Z,15.65
2023-03-05T12:24:52.812Z,16.08
2023-03-05T12:27:34.194Z,13.70
2023-03-05T12:30:02.227Z,15.13
2023-03-05T12:32:31.398Z,14.60
2023-03-05T12:35:00.125Z,13.82
2023-03-05T12:37:27.866Z,13.98
2023-03-05T12:40:04.652Z,12.65
2023-03-05T12:42:32.186Z,14.15
2023-03-05T12:45:12.204Z,14.50
2023-03-05T12:47:40.711Z,13.43
2023-03-05T12:50:26.917Z,13.25
2023-03-05T12:53:11.450Z,12.30
2023-03-05T12:55:45.713Z,12.60
2023-03-05T12:58:31.668Z,14.00
2023-03-05T13:00:59.326Z,13.55
2023-03-05T13:03:32.929Z,13.55
2023-03-05T13:06:00.930Z,13.02
2023-03-05T13:08:35.398Z,12.50
2023-03-05T13:11:04.262Z,11.98
2023-03-05T13:13:35.505Z,13.23
2023-03-05T13:16:03.411Z,13.07
2023-03-05T13:18:32.750Z,14.35
2023-03-05T13:21:04.396Z,13.85
2023-03-05T13:23:33.053Z,12.50
2023-03-05T13:26:11.776Z,13.20
2023-03-05T13:28:39.934Z,13.27
2023-03-05T13:31:13.392Z,13.02
2023-03-05T13:33:41.092Z,13.98
2023-03-05T13:36:08.708Z,13.57
2023-03-05T13:38:39.648Z,12.35
2023-03-05T13:41:16.812Z,12.80
2023-03-05T13:43:45.427Z,13.65
2023-03-05T13:46:13.543Z,12.70
2023-03-05T13:48:41.160Z,13.20
2023-03-05T13:51:09.605Z,14.05
2023-03-05T13:53:37.241Z,12.80
2023-03-05T13:56:06.416Z,13.68
2023-03-05T13:58:53.447Z,13.45
2023-03-05T14:01:43.681Z,13.20
2023-03-05T14:04:14.001Z,12.05
2023-03-05T14:07:01.815Z,13.52
2023-03-05T14:09:31.022Z,13.50
2023-03-05T14:12:03.929Z,12.65
2023-03-05T14:14:33.256Z,12.80
2023-03-05T14:17:19.780Z,13.32
2023-03-05T14:19:47.404Z,13.57
2023-03-05T14:22:35.452Z,13.27
2023-03-05T14:25:03.992Z,15.10
2023-03-05T14:27:36.092Z,13.70
2023-03-05T14:30:04.429Z,12.85
2023-03-05T14:32:32.931Z,12.80
2023-03-05T14:35:02.496Z,13.43
2023-03-05T14:37:32.320Z,14.45
2023-03-05T14:40:20.671Z,14.15
2023-03-05T14:42:52.458Z,12.80
2023-03-05T14:47:47.638Z,12.43
2023-03-05T14:50:19.196Z,13.65
2023-03-05T14:52:47.872Z,13.15
2023-03-05T14:55:17.158Z,13.00
2023-03-05T14:57:44.828Z,13.90
2023-03-05T15:00:19.715Z,13.50
2023-03-05T15:02:48.100Z,13.80
2023-03-05T15:05:16.687Z,13.60
2023-03-05T15:07:44.763Z,14.25
2023-03-05T15:10:20.385Z,13.73
2023-03-05T15:12:47.993Z,14.73
2023-03-05T15:15:16.108Z,14.32
2023-03-05T15:17:47.384Z,14.63
2023-03-05T15:20:16.921Z,15.93
2023-03-05T15:22:44.544Z,14.77
2023-03-05T15:25:12.281Z,13.18
2023-03-05T15:27:39.958Z,13.27
2023-03-05T15:30:08.365Z,15.48
2023-03-05T15:32:36.011Z,14.13
2023-03-05T15:35:03.671Z,14.68
2023-03-05T15:37:31.223Z,12.95
2023-03-05T15:39:58.775Z,12.73
2023-03-05T15:42:26.403Z,11.80
2023-03-05T15:44:54.011Z,12.23
2023-03-05T15:47:21.606Z,12.35
2023-03-05T15:49:49.201Z,11.80
2023-03-05T15:52:16.840Z,11.98
2023-03-05T15:54:44.409Z,12.07
2023-03-05T15:57:12.025Z,11.45
2023-03-05T15:59:39.696Z,11.80
2023-03-05T16:02:07.616Z,10.07
2023-03-05T16:04:35.190Z,10.98
2023-03-05T16:07:04.205Z,10.23
2023-03-05T16:09:35.899Z,10.18
2023-03-05T16:12:04.872Z,9.48
2023-03-05T16:14:32.901Z,9.00
2023-03-05T16:17:03.201Z,9.07
2023-03-05T16:19:31.177Z,8.77
2023-03-05T16:21:58.767Z,8.40
2023-03-05T16:24:26.312Z,9.57
2023-03-05T16:26:54.181Z,8.20
2023-03-05T16:29:22.805Z,8.50
2023-03-05T16:31:50.482Z,8.15
2023-03-05T16:34:18.765Z,8.82
2023-03-05T16:36:52.444Z,7.75
2023-03-05T16:39:20.849Z,8.80
2023-03-05T16:41:48.568Z,8.68
2023-03-05T16:44:16.194Z,8.27
2023-03-05T16:46:49.059Z,7.95
2023-03-05T16:49:16.834Z,8.18
2023-03-05T16:51:44.366Z,8.35
2023-03-05T16:54:11.957Z,7.97
2023-03-05T16:56:39.541Z,8.40
2023-03-05T16:59:07.205Z,8.35
2023-03-05T17:01:34.925Z,9.07
2023-03-05T17:04:02.681Z,8.18
2023-03-05T17:06:31.296Z,8.68
2023-03-05T17:08:59.118Z,9.02
2023-03-05T17:11:27.317Z,8.43
2023-03-05T17:13:54.904Z,8.48
2023-03-05T17:16:23.149Z,8.90
2023-03-05T17:18:50.769Z,9.57
2023-03-05T17:21:18.348Z,8.80
2023-03-05T17:23:45.956Z,10.05
2023-03-05T17:26:15.025Z,9.80
2023-03-05T17:28:42.930Z,9.55
2023-03-05T17:31:10.652Z,9.20
2023-03-05T17:33:38.900Z,8.73
2023-03-05T17:36:06.715Z,9.32
2023-03-05T17:38:34.265Z,9.05
2023-03-05T17:41:01.931Z,9.30
2023-03-05T17:43:29.514Z,9.10
2023-03-05T17:45:59.640Z,9.90
2023-03-05T17:48:27.546Z,8.52
2023-03-05T17:50:55.349Z,8.20
2023-03-05T17:53:23.565Z,8.90
2023-03-05T17:55:51.182Z,9.07
2023-03-05T17:58:18.784Z,8.38
2023-03-05T18:00:46.825Z,8.55
2023-03-05T18:03:14.394Z,9.38
2023-03-05T18:05:42.219Z,9.10
2023-03-05T18:08:09.781Z,8.60
2023-03-05T18:10:37.821Z,8.95
2023-03-05T18:13:05.547Z,8.68
2023-03-05T18:15:33.256Z,8.88
2023-03-05T18:18:00.939Z,9.02
2023-03-05T18:20:30.837Z,9.35
2023-03-05T18:22:59.152Z,8.57
2023-03-05T18:25:30.755Z,9.40
2023-03-05T18:28:06.256Z,9.15
2023-03-05T18:30:33.893Z,8.98
2023-03-05T18:33:01.517Z,9.43
2023-03-05T18:35:29.619Z,8.85
2023-03-05T18:37:57.704Z,8.77
2023-03-05T18:40:26.121Z,9.23
2023-03-05T18:42:53.760Z,9.20
2023-03-05T18:45:22.696Z,8.55
2023-03-05T18:47:53.956Z,9.20
2023-03-05T18:50:23.281Z,8.90
2023-03-05T18:52:51.389Z,9.15
2023-03-05T18:55:20.894Z,9.55
2023-03-05T18:57:49.253Z,9.20
2023-03-05T19:00:21.263Z,10.00
2023-03-05T19:02:49.250Z,9.32
2023-03-05T19:05:17.349Z,9.38
2023-03-05T19:07:45.383Z,10.60
2023-03-05T19:10:13.803Z,10.13
2023-03-05T19:13:07.543Z,9.63
2023-03-05T19:15:40.470Z,9.80
2023-03-05T19:18:08.290Z,10.00
2023-03-05T19:20:35.903Z,9.77
2023-03-05T19:23:03.508Z,9.82
2023-03-05T19:25:31.069Z,10.35
2023-03-05T19:27:58.625Z,9.93
2023-03-05T19:30:27.377Z,11.15
2023-03-05T19:32:54.974Z,9.65
2023-03-05T19:35:22.585Z,9.20
2023-03-05T19:37:50.193Z,9.65
2023-03-05T19:40:17.894Z,9.80
2023-03-05T19:42:45.565Z,9.07
2023-03-05T19:45:13.252Z,9.25
2023-03-05T19:47:41.058Z,10.20
2023-03-05T19:50:09.946Z,8.82
2023-03-05T19:52:37.495Z,9.68
2023-03-05T19:55:05.636Z,9.65
2023-03-05T19:57:33.479Z,10.98
2023-03-05T20:00:01.186Z,9.82
2023-03-05T20:02:29.623Z,10.18
2023-03-05T20:04:57.438Z,10.02
2023-03-05T20:07:25.079Z,10.13
2023-03-05T20:09:55.265Z,9.40
2023-03-05T20:12:24.393Z,9.63
2023-03-05T20:14:51.939Z,9.32
2023-03-05T20:17:19.997Z,9.20
2023-03-05T20:19:47.642Z,9.93
2023-03-05T20:22:15.200Z,9.18
2023-03-05T20:24:42.819Z,9.82
2023-03-05T20:27:10.417Z,9.68
2023-03-05T20:29:37.941Z,9.25
2023-03-05T20:32:05.586Z,9.35
2023-03-05T20:34:33.157Z,9.63
2023-03-05T20:37:00.793Z,9.00
2023-03-05T20:39:28.475Z,9.27
2023-03-05T20:41:56.028Z,9.82
2023-03-05T20:44:23.608Z,9.85
2023-03-05T20:47:20.274Z,10.10
2023-03-05T20:49:56.932Z,10.50
2023-03-05T20:52:24.514Z,9.73
2023-03-05T20:54:52.211Z,9.98
2023-03-05T20:57:19.782Z,10.00
2023-03-05T20:59:47.332Z,10.43
2023-03-05T21:02:14.944Z,11.38
2023-03-05T21:04:42.537Z,11.18
2023-03-05T21:07:10.116Z,11.00
2023-03-05T21:09:37.669Z,10.98
2023-03-05T21:12:05.355Z,10.80
2023-03-05T21:14:37.536Z,10.90
2023-03-05T21:17:05.947Z,10.30
2023-03-05T21:19:33.863Z,11.20
2023-03-05T21:22:01.406Z,11.07
2023-03-05T21:25:00.758Z,11.27
2023-03-05T21:27:37.407Z,10.82
2023-03-05T21:30:05.594Z,10.73
2023-03-05T21:32:34.367Z,11.48
2023-03-05T21:35:02.245Z,11.60
2023-03-05T21:37:29.846Z,12.18
2023-03-05T21:39:57.416Z,12.82
2023-03-05T21:42:24.983Z,12.38
2023-03-05T21:44:52.553Z,13.50
2023-03-05T21:47:20.140Z,12.77
2023-03-05T21:49:47.686Z,11.90
2023-03-05T21:52:15.550Z,12.23
2023-03-05T21:54:43.606Z,12.18
2023-03-05T21:57:12.076Z,12.75
2023-03-05T21:59:41.265Z,12.07
2023-03-05T22:02:15.848Z,12.70
2023-03-05T22:04:43.508Z,12.10
2023-03-05T22:07:11.309Z,11.40
2023-03-05T22:09:38.966Z,11.80
2023-03-05T22:12:53.319Z,11.77
2023-03-05T22:15:29.803Z,11.10
2023-03-05T22:17:57.440Z,11.45
2023-03-05T22:20:25.075Z,11.40
2023-03-05T22:22:52.745Z,10.93
2023-03-05T22:25:20.325Z,12.68
2023-03-05T22:27:47.917Z,11.30
2023-03-05T22:30:15.606Z,11.13
2023-03-05T22:32:43.244Z,10.60
2023-03-05T22:35:12.566Z,10.43
2023-03-05T22:37:41.417Z,10.95
2023-03-05T22:40:10.041Z,10.88
2023-03-05T22:42:37.700Z,11.55
2023-03-05T22:45:05.513Z,10.70
2023-03-05T22:47:33.114Z,10.95
2023-03-05T22:50:00.753Z,10.70
2023-03-05T22:52:28.309Z,10.85
2023-03-05T22:54:56.125Z,10.98
2023-03-05T22:57:23.745Z,11.48
2023-03-05T22:59:51.320Z,10.93
2023-03-05T23:02:18.865Z,11.90
2023-03-05T23:04:51.198Z,11.70
2023-03-05T23:07:22.350Z,11.07
2023-03-05T23:10:01.025Z,11.82
2023-03-05T23:12:30.039Z,12.20
2023-03-05T23:15:00.217Z,12.75
2023-03-05T23:17:27.873Z,11.98
2023-03-05T23:19:55.460Z,11.93
2023-03-05T23:22:23.057Z,11.13
2023-03-05T23:24:50.621Z,11.75
2023-03-05T23:27:18.871Z,12.02
2023-03-05T23:30:16.516Z,11.82
2023-03-05T23:32:45.003Z,11.70
2023-03-05T23:35:13.841Z,12.45
2023-03-05T23:37:41.677Z,12.82
2023-03-05T23:40:12.391Z,11.77
2023-03-05T23:42:39.927Z,11.25
2023-03-05T23:45:08.162Z,11.98
2023-03-05T23:47:36.141Z,12.43
2023-03-05T23:50:05.061Z,12.50
2023-03-05T23:52:32.600Z,11.05
2023-03-05T23:55:00.144Z,11.63
2023-03-05T23:57:27.695Z,11.60
2023-03-05T23:59:55.322Z,10.60
